Time;durP1;ratioP1;P1;durP2;ratioP2;P2;SDS_P1;SDS_P2;PMS_P1;PMS_P2;Temp;Humidity;BMP_temperature;BMP_pressure;BME280_temperature;BME280_humidity;BME280_pressure;Samples;Min_cycle;Max_cycle;Signal;HPM_P1;HPM_P2
2023/07/25 00:00:44;;;;;;;3.90;3.37;;;16.50;99.90;16.30;98663;;;;587540;242;24062;-83
2023/07/25 00:03:12;;;;;;;3.20;2.90;;;16.50;99.90;16.30;98667;;;;568116;251;24097;-84
2023/07/25 00:05:40;;;;;;;3.13;2.73;;;16.50;99.90;16.30;98656;;;;588014;242;24054;-84
2023/07/25 00:08:08;;;;;;;4.43;3.30;;;16.50;99.90;16.30;98656;;;;593296;242;24039;-84
2023/07/25 00:10:39;;;;;;;6.07;3.20;;;16.50;99.90;16.30;98648;;;;569130;250;24222;-84
2023/07/25 00:13:06;;;;;;;6.80;3.03;;;16.50;99.90;16.30;98649;;;;588657;242;24069;-84
2023/07/25 00:15:37;;;;;;;6.60;4.00;;;16.50;99.90;16.20;98640;;;;593300;242;24067;-84
2023/07/25 00:18:02;;;;;;;3.50;3.20;;;16.50;99.90;16.30;98630;;;;583906;242;24094;-84
2023/07/25 00:20:33;;;;;;;5.73;3.80;;;16.50;99.90;16.20;98614;;;;593452;242;24102;-84
2023/07/25 00:22:58;;;;;;;4.67;2.97;;;16.50;99.90;16.30;98610;;;;593530;242;24096;-84
2023/07/25 00:25:26;;;;;;;5.33;3.53;;;16.50;99.90;16.30;98607;;;;593383;242;24164;-84
2023/07/25 00:27:54;;;;;;;5.90;3.73;;;16.50;99.90;16.30;98602;;;;593847;240;24075;-83
2023/07/25 00:30:22;;;;;;;5.50;3.77;;;16.50;99.90;16.30;98590;;;;570159;250;24120;-83
2023/07/25 00:32:50;;;;;;;3.93;3.03;;;16.60;99.90;16.30;98594;;;;589214;242;24040;-84
2023/07/25 00:35:18;;;;;;;6.37;3.83;;;16.60;99.90;16.30;98596;;;;594491;242;24062;-81
2023/07/25 00:37:46;;;;;;;3.80;3.43;;;16.50;99.90;16.30;98640;;;;594728;242;24087;-82
2023/07/25 00:40:15;;;;;;;4.70;3.77;;;16.50;99.90;16.30;98654;;;;594165;242;24071;-83
2023/07/25 00:42:43;;;;;;;6.83;4.17;;;16.60;99.90;16.30;98641;;;;569242;250;24088;-83
2023/07/25 00:45:12;;;;;;;5.57;3.70;;;16.60;99.90;16.30;98614;;;;588490;242;24130;-82
2023/07/25 00:47:40;;;;;;;7.57;3.43;;;16.60;99.90;16.30;98620;;;;593455;242;24039;-82
2023/07/25 00:50:08;;;;;;;7.43;3.83;;;16.60;99.90;16.30;98630;;;;593388;242;24084;-83
2023/07/25 00:52:36;;;;;;;6.77;3.77;;;16.50;99.90;16.30;98625;;;;590115;242;24104;-82
2023/07/25 00:55:04;;;;;;;3.63;3.17;;;16.50;99.90;16.30;98614;;;;584114;242;24078;-83
2023/07/25 00:57:32;;;;;;;3.77;3.23;;;16.50;99.90;16.30;98609;;;;587836;242;24076;-82
2023/07/25 01:00:01;;;;;;;3.83;3.47;;;16.50;99.90;16.30;98600;;;;568364;251;24118;-82
2023/07/25 01:02:31;;;;;;;4.67;3.70;;;16.50;99.90;16.30;98594;;;;587873;242;24083;-83
2023/07/25 01:04:57;;;;;;;3.90;3.60;;;16.50;99.90;16.30;98594;;;;592636;242;24113;-83
2023/07/25 01:07:28;;;;;;;4.70;3.23;;;16.50;99.90;16.20;98603;;;;593318;242;24064;-83
2023/07/25 01:09:53;;;;;;;4.03;3.50;;;16.50;99.90;16.20;98611;;;;583971;242;24070;-84
2023/07/25 01:12:22;;;;;;;5.20;3.37;;;16.50;99.90;16.20;98612;;;;593251;242;24075;-82
2023/07/25 01:14:50;;;;;;;4.70;3.73;;;16.50;99.90;16.20;98619;;;;568480;251;24096;-82
2023/07/25 01:17:18;;;;;;;6.67;3.67;;;16.50;99.90;16.20;98624;;;;588059;242;24081;-82
2023/07/25 01:19:46;;;;;;;4.50;3.67;;;16.50;99.90;16.20;98630;;;;593321;242;24083;-83
2023/07/25 01:22:14;;;;;;;4.50;3.80;;;16.50;99.90;16.20;98635;;;;584167;242;24069;-83
2023/07/25 01:24:45;;;;;;;5.83;3.87;;;16.50;99.90;16.20;98645;;;;588256;242;24050;-83
2023/07/25 01:27:10;;;;;;;6.60;3.80;;;16.50;99.90;16.20;98635;;;;592743;238;24054;-84
2023/07/25 01:29:38;;;;;;;5.63;3.63;;;16.50;99.90;16.20;98635;;;;568657;251;24189;-84
2023/07/25 01:32:06;;;;;;;4.67;3.67;;;16.50;99.90;16.20;98643;;;;587743;242;24064;-84
2023/07/25 01:34:34;;;;;;;4.00;3.60;;;16.50;99.90;16.20;98638;;;;588044;242;24081;-83
2023/07/25 01:37:02;;;;;;;5.07;3.67;;;16.50;99.90;16.20;98641;;;;593934;242;24084;-83
2023/07/25 01:39:30;;;;;;;5.07;3.70;;;16.50;99.90;16.20;98653;;;;584802;240;24103;-83
2023/07/25 01:41:58;;;;;;;3.47;3.03;;;16.50;99.90;16.20;98656;;;;594754;241;24137;-83
2023/07/25 01:44:26;;;;;;;6.33;3.40;;;16.50;99.90;16.20;98655;;;;569363;250;24101;-84
2023/07/25 01:46:54;;;;;;;4.53;3.73;;;16.50;99.90;16.20;98655;;;;589330;242;24100;-83
2023/07/25 01:49:22;;;;;;;4.23;3.43;;;16.50;99.90;16.20;98659;;;;594557;241;24049;-85
2023/07/25 01:51:50;;;;;;;3.87;3.43;;;16.50;99.90;16.20;98657;;;;594286;242;24081;-86
2023/07/25 01:54:18;;;;;;;4.00;3.57;;;16.50;99.90;16.20;98655;;;;594069;242;24109;-85
2023/07/25 01:56:46;;;;;;;5.70;3.60;;;16.50;99.90;16.20;98667;;;;593721;242;24079;-83
2023/07/25 01:59:14;;;;;;;4.70;3.97;;;16.50;99.90;16.20;98669;;;;593483;242;24057;-84
2023/07/25 02:01:42;;;;;;;6.33;4.50;;;16.50;99.90;16.20;98662;;;;593208;242;24140;-85
2023/07/25 02:04:10;;;;;;;5.40;4.80;;;16.40;99.90;16.10;98670;;;;568317;251;23127;-86
2023/07/25 02:06:38;;;;;;;11.67;4.70;;;16.40;99.90;16.10;98671;;;;587978;242;24103;-85
2023/07/25 02:09:06;;;;;;;4.73;4.20;;;16.40;99.90;16.10;98666;;;;593066;242;24085;-84
2023/07/25 02:11:34;;;;;;;5.03;4.53;;;16.40;99.90;16.10;98670;;;;593232;242;24077;-85
2023/07/25 02:14:02;;;;;;;7.87;5.13;;;16.40;99.90;16.20;98671;;;;593129;242;24076;-83
2023/07/25 02:16:30;;;;;;;5.33;4.37;;;16.50;99.90;16.20;98681;;;;592857;242;24046;-85
2023/07/25 02:18:58;;;;;;;7.87;4.63;;;16.50;99.90;16.20;98676;;;;593384;242;24097;-86
2023/07/25 02:21:26;;;;;;;5.27;4.20;;;16.50;99.90;16.30;98680;;;;569502;250;24149;-83
2023/07/25 02:23:57;;;;;;;5.20;4.50;;;16.60;99.90;16.30;98680;;;;588866;242;24060;-84
2023/07/25 02:26:22;;;;;;;5.97;5.10;;;16.60;99.90;16.30;98684;;;;584624;242;24082;-85
2023/07/25 02:28:53;;;;;;;9.27;5.17;;;16.60;99.90;16.30;98691;;;;593690;242;24083;-84
2023/07/25 02:31:18;;;;;;;8.77;4.47;;;16.60;99.90;16.40;98694;;;;584467;242;24080;-86
2023/07/25 02:33:46;;;;;;;7.13;4.37;;;16.70;99.90;16.40;98692;;;;593592;242;24098;-84
2023/07/25 02:36:14;;;;;;;8.33;4.90;;;16.70;99.90;16.40;98686;;;;593881;242;24076;-84
2023/07/25 02:38:42;;;;;;;7.53;4.80;;;16.70;99.90;16.40;98688;;;;593414;242;24068;-84
2023/07/25 02:41:10;;;;;;;5.37;4.67;;;16.70;99.90;16.40;98692;;;;568314;250;24110;-86
2023/07/25 02:43:38;;;;;;;5.13;4.50;;;16.70;99.90;16.30;98686;;;;587673;242;24065;-85
2023/07/25 02:46:06;;;;;;;6.17;4.37;;;16.60;99.90;16.30;98685;;;;592725;242;24075;-86
2023/07/25 02:48:34;;;;;;;5.80;4.13;;;16.60;99.90;16.20;98686;;;;592888;242;24067;-86
2023/07/25 02:51:02;;;;;;;7.27;4.47;;;16.50;99.90;16.10;98690;;;;583620;242;24077;-86
2023/07/25 02:53:31;;;;;;;5.87;4.10;;;16.40;99.90;16.10;98692;;;;594541;241;24043;-86
2023/07/25 02:56:00;;;;;;;5.77;4.20;;;16.40;99.90;16.00;98699;;;;593927;242;24099;-85
2023/07/25 02:58:27;;;;;;;5.50;3.90;;;16.40;99.90;16.00;98694;;;;594065;242;24058;-85
2023/07/25 03:00:55;;;;;;;6.40;3.77;;;16.40;99.90;16.00;98699;;;;593698;242;24045;-86
2023/07/25 03:03:23;;;;;;;4.90;3.83;;;16.30;99.90;16.00;98695;;;;593247;242;24101;-86
2023/07/25 03:05:52;;;;;;;6.37;4.03;;;16.20;99.90;15.90;98707;;;;593427;242;24078;-85
2023/07/25 03:08:20;;;;;;;3.60;3.30;;;16.20;99.90;15.80;98696;;;;593327;242;24087;-85
2023/07/25 03:10:48;;;;;;;4.40;3.90;;;16.10;99.90;15.80;98689;;;;593898;242;24053;-85
2023/07/25 03:13:19;;;;;;;4.63;4.10;;;16.10;99.90;15.80;98696;;;;569136;251;24122;-86
2023/07/25 03:15:44;;;;;;;4.50;4.10;;;16.10;99.90;15.80;98691;;;;593580;238;24180;-86
2023/07/25 03:18:11;;;;;;;5.27;3.63;;;16.10;99.90;15.70;98691;;;;568450;247;24108;-83
2023/07/25 03:20:39;;;;;;;3.53;3.23;;;16.10;99.90;15.70;98689;;;;587828;242;24110;-84
2023/07/25 03:23:10;;;;;;;4.07;3.40;;;16.00;99.90;15.70;98681;;;;593154;242;24066;-84
2023/07/25 03:25:35;;;;;;;4.33;3.90;;;16.00;99.90;15.70;98686;;;;593027;242;24079;-84
2023/07/25 03:28:04;;;;;;;5.27;4.27;;;16.00;99.90;15.70;98679;;;;568579;251;24120;-83
2023/07/25 03:30:32;;;;;;;5.73;4.23;;;16.00;99.90;15.70;98681;;;;582256;242;25128;-80
2023/07/25 03:33:00;;;;;;;4.50;4.10;;;16.00;99.90;15.70;98678;;;;592919;242;24063;-83
2023/07/25 03:35:28;;;;;;;4.43;4.03;;;16.00;99.90;15.70;98678;;;;568303;251;24120;-85
2023/07/25 03:37:56;;;;;;;4.43;4.03;;;16.00;99.90;15.70;98686;;;;587838;242;24060;-83
2023/07/25 03:40:24;;;;;;;5.00;3.87;;;16.00;99.90;15.80;98672;;;;593664;242;24078;-82
2023/07/25 03:42:52;;;;;;;6.80;4.57;;;16.10;99.90;15.80;98688;;;;569866;251;24107;-85
2023/07/25 03:45:20;;;;;;;4.37;3.90;;;16.10;99.90;16.10;98683;;;;588927;242;24093;-84
2023/07/25 03:47:48;;;;;;;4.73;4.23;;;16.40;99.90;16.90;98686;;;;593569;242;24055;-85
2023/07/25 03:50:16;;;;;;;7.13;5.23;;;17.00;99.90;17.60;98687;;;;594138;242;24053;-81
2023/07/25 03:52:47;;;;;;;6.60;4.73;;;17.70;99.90;18.20;98689;;;;594239;242;24063;-86
2023/07/25 03:55:12;;;;;;;5.63;4.13;;;18.30;99.90;18.80;98701;;;;584741;242;24075;-83
2023/07/25 03:57:40;;;;;;;4.37;3.87;;;18.90;99.90;19.60;98704;;;;569045;250;24205;-84
2023/07/25 04:00:12;;;;;;;4.40;4.00;;;19.60;99.90;20.20;98706;;;;588482;242;23095;-86
2023/07/25 04:02:36;;;;;;;4.57;4.17;;;20.20;99.90;20.60;98703;;;;582252;242;24074;-84
2023/07/25 04:05:07;;;;;;;4.30;3.87;;;20.80;99.90;21.00;98708;;;;595435;241;24103;-86
2023/07/25 04:07:31;;;;;;;4.40;3.50;;;21.30;99.90;21.50;98713;;;;554735;252;35548;-83
2023/07/25 04:09:59;;;;;;;4.80;3.10;;;21.80;99.90;22.10;98714;;;;589531;242;24041;-83
2023/07/25 04:12:28;;;;;;;3.10;2.80;;;23.00;99.90;22.60;98713;;;;594123;242;24179;-82
2023/07/25 04:14:56;;;;;;;3.53;3.23;;;22.90;99.90;23.00;98715;;;;568832;251;24163;-85
2023/07/25 04:17:24;;;;;;;3.07;2.87;;;23.50;99.90;23.40;98710;;;;588835;242;23238;-84
2023/07/25 04:19:55;;;;;;;3.03;2.83;;;23.90;99.90;23.80;98710;;;;593995;242;24085;-82
2023/07/25 04:22:20;;;;;;;3.77;2.53;;;24.30;99.90;24.20;98714;;;;584574;242;24153;-83
2023/07/25 04:24:48;;;;;;;3.70;3.40;;;24.80;99.90;24.90;98712;;;;568905;251;23146;-84
2023/07/25 04:27:16;;;;;;;3.50;2.70;;;25.40;99.90;25.50;98708;;;;589102;242;23057;-85
2023/07/25 04:29:43;;;;;;;2.57;2.47;;;26.00;99.90;25.80;98714;;;;569431;251;24127;-84
2023/07/25 04:32:11;;;;;;;3.23;2.93;;;26.50;99.90;26.20;98710;;;;588892;242;24104;-84
2023/07/25 04:34:40;;;;;;;2.80;2.70;;;27.50;99.90;26.80;98700;;;;569393;251;23131;-84
2023/07/25 04:37:09;;;;;;;4.18;3.05;;;28.00;99.90;27.30;98701;;;;588453;242;24106;-83
2023/07/25 04:39:37;;;;;;;3.45;3.15;;;27.90;99.90;27.80;98705;;;;593482;242;24067;-83
2023/07/25 04:42:04;;;;;;;3.22;3.03;;;28.60;99.90;28.60;98699;;;;568563;248;23220;-82
2023/07/25 04:44:32;;;;;;;2.90;2.70;;;29.40;99.90;29.30;98705;;;;581765;242;23111;-83
2023/07/25 04:47:01;;;;;;;4.07;2.62;;;30.20;99.90;29.30;98697;;;;592832;242;23078;-83
2023/07/25 04:49:30;;;;;;;3.08;2.87;;;29.40;99.90;28.30;98702;;;;567971;251;23150;-84
2023/07/25 04:51:58;;;;;;;2.67;2.58;;;29.40;99.90;27.50;98705;;;;587665;242;23054;-83
2023/07/25 04:54:26;;;;;;;4.57;3.33;;;28.60;99.90;26.50;98695;;;;592780;242;24086;-83
2023/07/25 04:56:53;;;;;;;4.68;2.67;;;27.70;99.90;25.60;98700;;;;592930;242;23101;-82
2023/07/25 04:59:21;;;;;;;2.53;2.33;;;26.70;99.90;25.00;98705;;;;592764;242;23126;-84
2023/07/25 05:01:49;;;;;;;3.90;2.60;;;25.90;99.90;25.90;98701;;;;567916;251;23127;-84
2023/07/25 05:04:17;;;;;;;2.60;2.40;;;26.30;99.90;27.10;98702;;;;587621;242;23063;-86
2023/07/25 05:06:45;;;;;;;3.90;3.08;;;27.60;99.90;27.70;98711;;;;592755;242;24097;-84
2023/07/25 05:09:14;;;;;;;2.87;2.67;;;28.30;99.90;27.10;98702;;;;568074;251;23114;-87
2023/07/25 05:11:41;;;;;;;2.97;2.78;;;28.00;99.90;26.80;98696;;;;587429;242;23123;-85
2023/07/25 05:14:09;;;;;;;3.75;3.30;;;27.60;99.90;27.80;98707;;;;584071;242;23101;-86
2023/07/25 05:16:37;;;;;;;5.00;3.42;;;28.30;99.90;28.90;98709;;;;569915;251;23105;-86
2023/07/25 05:19:05;;;;;;;2.85;2.65;;;29.40;99.90;29.90;98701;;;;589215;242;24096;-84
2023/07/25 05:21:33;;;;;;;3.03;2.55;;;30.60;99.90;31.00;98704;;;;594780;242;23046;-85
2023/07/25 05:24:00;;;;;;;2.72;2.62;;;31.60;99.90;31.80;98701;;;;594495;242;24103;-84
2023/07/25 05:26:28;;;;;;;3.45;2.22;;;32.50;96.70;32.40;98708;;;;569547;251;23132;-85
2023/07/25 05:28:56;;;;;;;2.80;2.60;;;33.20;94.00;32.90;98707;;;;588969;242;23051;-84
2023/07/25 05:31:24;;;;;;;2.33;2.20;;;33.70;91.70;33.40;98715;;;;593418;242;24101;-85
2023/07/25 05:33:52;;;;;;;3.17;2.75;;;34.20;87.70;33.70;98718;;;;593422;242;23118;-85
2023/07/25 05:36:20;;;;;;;4.20;2.17;;;34.60;87.50;34.20;98723;;;;593287;242;24089;-86
2023/07/25 05:38:48;;;;;;;2.33;2.22;;;34.90;84.70;34.50;98727;;;;593300;242;23074;-87
2023/07/25 05:41:17;;;;;;;2.97;2.75;;;35.60;79.40;34.80;98720;;;;568381;250;23131;-86
2023/07/25 05:43:45;;;;;;;3.92;2.47;;;35.60;79.40;35.30;98721;;;;584458;242;24142;-85
2023/07/25 05:46:13;;;;;;;2.80;2.30;;;36.00;74.40;35.50;98729;;;;593503;242;23094;-85
2023/07/25 05:48:41;;;;;;;2.35;2.25;;;36.50;74.60;35.80;98736;;;;593377;242;24095;-86
2023/07/25 05:51:10;;;;;;;5.70;2.45;;;36.60;72.10;35.80;98734;;;;593401;242;24138;-86
2023/07/25 05:53:42;;;;;;;3.97;2.65;;;36.50;71.60;35.90;98749;;;;593140;242;24128;-86
2023/07/25 05:56:06;;;;;;;2.70;2.35;;;36.60;68.90;36.00;98743;;;;592621;242;24114;-85
2023/07/25 05:58:33;;;;;;;2.65;2.53;;;36.70;67.20;36.10;98744;;;;592920;242;24102;-85
2023/07/25 06:01:02;;;;;;;3.12;2.28;;;37.10;65.50;36.60;98758;;;;593187;242;23154;-85
2023/07/25 06:03:31;;;;;;;2.65;2.45;;;37.60;65.60;37.10;98762;;;;568387;247;23118;-85
2023/07/25 06:05:59;;;;;;;2.80;2.37;;;37.60;64.80;37.30;98761;;;;587958;242;23133;-85
2023/07/25 06:08:30;;;;;;;2.80;2.60;;;37.90;63.60;37.50;98753;;;;593221;242;24109;-85
2023/07/25 06:10:58;;;;;;;2.95;2.58;;;38.10;62.60;37.60;98746;;;;568414;252;23129;-87
2023/07/25 06:13:36;;;;;;;3.20;2.37;;;38.30;59.60;37.70;98755;;;;587992;242;23071;-84
2023/07/25 06:15:54;;;;;;;2.28;2.08;;;38.30;59.60;37.80;98752;;;;592108;242;23088;-85
2023/07/25 06:18:22;;;;;;;5.25;2.25;;;38.40;61.00;38.00;98750;;;;583638;242;23162;-86
2023/07/25 06:20:54;;;;;;;3.72;2.47;;;38.50;58.60;38.20;98755;;;;569203;248;23117;-87
2023/07/25 06:23:19;;;;;;;2.70;2.47;;;38.70;57.80;38.30;98752;;;;581037;242;23079;-87
2023/07/25 06:25:49;;;;;;;3.85;2.40;;;38.90;57.40;38.30;98762;;;;592817;239;23092;-85
2023/07/25 06:28:15;;;;;;;2.30;2.15;;;39.20;57.60;38.70;98768;;;;594021;241;24100;-87
2023/07/25 06:30:45;;;;;;;2.95;2.35;;;39.10;57.50;39.10;98771;;;;569358;247;23162;-86
2023/07/25 06:33:10;;;;;;;2.75;2.17;;;39.50;55.90;39.30;98777;;;;589646;240;23141;-86
2023/07/25 06:35:38;;;;;;;2.10;2.00;;;39.70;55.00;39.40;98777;;;;594247;241;23075;-87
2023/07/25 06:38:06;;;;;;;3.08;2.50;;;39.80;54.30;39.60;98773;;;;593955;242;23064;-87
2023/07/25 06:40:34;;;;;;;2.40;2.20;;;40.00;54.30;39.20;98778;;;;594120;242;23087;-87
2023/07/25 06:43:04;;;;;;;3.08;2.35;;;39.80;53.50;39.40;98771;;;;594504;242;23070;-88
2023/07/25 06:45:32;;;;;;;2.37;2.22;;;39.80;53.50;39.60;98772;;;;569245;251;23133;-88
2023/07/25 06:48:00;;;;;;;3.75;2.30;;;40.00;52.70;39.60;98771;;;;587976;242;23056;-87
2023/07/25 06:50:33;;;;;;;2.42;2.22;;;40.00;53.60;40.00;98771;;;;569060;250;23159;-88
2023/07/25 06:52:57;;;;;;;2.62;2.42;;;40.20;53.00;40.60;98769;;;;593650;242;23129;-86
2023/07/25 06:55:25;;;;;;;2.85;2.30;;;40.90;52.20;41.00;98774;;;;594267;242;24172;-86
2023/07/25 06:57:57;;;;;;;3.37;2.03;;;41.20;51.40;41.30;98784;;;;594148;242;24122;-88
2023/07/25 07:00:25;;;;;;;2.25;2.12;;;41.60;51.10;41.00;98785;;;;569863;251;23153;-87
2023/07/25 07:02:57;;;;;;;4.12;2.28;;;41.40;49.90;41.10;98787;;;;593782;242;23089;-87
2023/07/25 07:05:23;;;;;;;2.22;2.10;;;41.40;50.90;42.00;98788;;;;588186;242;23089;-87
2023/07/25 07:07:54;;;;;;;2.00;1.90;;;42.00;49.30;42.40;98806;;;;594065;242;23073;-87
2023/07/25 07:10:22;;;;;;;7.53;2.47;;;42.60;49.20;42.50;98798;;;;569147;251;23112;-88
2023/07/25 07:12:53;;;;;;;2.03;1.92;;;42.90;48.40;42.50;98801;;;;593707;242;23072;-87
2023/07/25 07:15:21;;;;;;;2.85;2.28;;;42.90;48.20;42.70;98804;;;;588166;242;23097;-88
2023/07/25 07:17:50;;;;;;;4.87;1.98;;;43.10;47.60;42.70;98802;;;;568970;252;23229;-88
2023/07/25 07:20:15;;;;;;;2.40;1.92;;;42.90;47.50;41.90;98810;;;;584666;242;23071;-88
2023/07/25 07:22:43;;;;;;;1.70;1.70;;;42.40;47.20;40.40;98816;;;;583009;242;23078;-87
2023/07/25 07:25:15;;;;;;;1.73;1.62;;;41.20;48.40;40.00;98815;;;;594064;242;23063;-85
2023/07/25 07:27:40;;;;;;;1.60;1.50;;;40.50;49.40;39.60;98820;;;;570111;252;23113;-87
2023/07/25 07:30:11;;;;;;;2.83;1.95;;;40.10;50.20;39.00;98827;;;;584536;242;23084;-89
2023/07/25 07:32:36;;;;;;;2.17;1.85;;;39.50;50.80;39.40;98845;;;;557900;252;23144;-88
2023/07/25 07:35:07;;;;;;;1.90;1.80;;;39.50;51.20;39.40;98843;;;;587982;242;23107;-88
2023/07/25 07:37:36;;;;;;;1.85;1.75;;;39.50;51.10;38.90;98850;;;;584022;240;23080;-88
2023/07/25 07:40:01;;;;;;;1.80;1.70;;;39.20;51.20;39.70;98861;;;;559634;252;23129;-87
2023/07/25 07:42:29;;;;;;;2.20;1.95;;;39.60;51.60;40.30;98865;;;;561360;252;23116;-87
2023/07/25 07:45:00;;;;;;;1.70;1.60;;;40.20;50.60;40.80;98863;;;;569463;252;23120;-89
2023/07/25 07:47:24;;;;;;;3.92;1.52;;;40.70;49.80;41.00;98872;;;;594045;237;23111;-87
2023/07/25 07:49:59;;;;;;;1.83;1.73;;;41.10;49.50;40.00;98881;;;;594348;242;23071;-86
2023/07/25 07:52:26;;;;;;;2.10;1.90;;;40.50;48.60;38.30;98901;;;;584471;242;23074;-86
2023/07/25 07:54:55;;;;;;;3.28;1.80;;;39.20;49.40;36.90;98895;;;;593853;238;24099;-86
2023/07/25 07:57:20;;;;;;;2.25;2.03;;;38.00;51.00;36.70;98901;;;;593666;242;23062;-87
2023/07/25 07:59:51;;;;;;;1.70;1.60;;;37.30;52.90;36.50;98909;;;;594024;242;23081;-85
2023/07/25 08:02:20;;;;;;;1.50;1.40;;;37.00;52.90;36.50;98913;;;;593890;242;23076;-86
2023/07/25 08:04:49;;;;;;;3.47;1.75;;;36.40;53.50;35.80;98923;;;;584590;242;23090;-86
2023/07/25 08:07:20;;;;;;;3.65;1.67;;;36.40;53.50;34.70;98944;;;;594172;242;23073;-86
2023/07/25 08:09:49;;;;;;;3.12;1.90;;;35.50;54.80;33.40;98938;;;;594253;242;23170;-86
2023/07/25 08:12:18;;;;;;;5.93;1.90;;;34.30;56.60;32.30;98939;;;;593462;242;23106;-85
2023/07/25 08:14:46;;;;;;;2.20;2.00;;;33.20;58.60;31.40;98933;;;;593278;242;23084;-85
2023/07/25 08:17:20;;;;;;;3.42;2.00;;;32.20;61.10;30.50;98932;;;;593725;242;23108;-85
2023/07/25 08:19:48;;;;;;;3.55;1.90;;;31.30;63.10;29.70;98935;;;;594085;242;23078;-86
2023/07/25 08:22:15;;;;;;;3.47;1.70;;;30.40;64.60;29.50;98930;;;;573587;250;23023;-86
2023/07/25 08:24:43;;;;;;;3.97;1.83;;;29.80;66.70;30.20;98928;;;;588651;242;23075;-85
2023/07/25 08:27:11;;;;;;;2.80;1.90;;;30.20;67.80;30.70;98929;;;;594048;242;23079;-87
2023/07/25 08:29:46;;;;;;;1.65;1.55;;;30.80;65.50;31.00;98942;;;;569516;251;23114;-85
2023/07/25 08:32:14;;;;;;;1.67;1.58;;;31.10;64.30;31.00;98941;;;;585250;242;23046;-86
2023/07/25 08:34:40;;;;;;;1.70;1.60;;;31.30;64.70;31.30;98932;;;;577747;242;35088;-86
2023/07/25 08:37:09;;;;;;;4.25;1.60;;;31.70;63.70;31.20;98933;;;;593857;242;24169;-85
2023/07/25 08:39:40;;;;;;;2.80;1.48;;;31.70;62.80;30.90;98937;;;;584510;242;23083;-85
2023/07/25 08:42:06;;;;;;;1.33;1.20;;;31.40;62.70;30.70;98936;;;;584463;242;23122;-85
2023/07/25 08:44:36;;;;;;;2.22;1.33;;;31.20;62.80;30.20;98933;;;;584940;242;23094;-86
2023/07/25 08:47:01;;;;;;;2.15;1.48;;;30.80;63.40;29.80;98935;;;;588370;242;23071;-86
2023/07/25 08:49:30;;;;;;;1.70;1.60;;;30.30;64.60;29.40;98936;;;;594428;240;23090;-86
2023/07/25 08:52:01;;;;;;;2.30;1.67;;;30.00;65.40;28.90;98933;;;;589947;242;23075;-86
2023/07/25 08:54:36;;;;;;;2.83;1.67;;;29.50;66.80;28.60;98929;;;;568053;253;24130;-85
2023/07/25 08:57:06;;;;;;;2.47;1.75;;;29.10;67.80;28.00;98920;;;;567270;248;23121;-85
2023/07/25 08:59:34;;;;;;;5.37;1.60;;;28.60;69.40;27.70;98920;;;;584764;242;23096;-85
2023/07/25 09:02:03;;;;;;;2.53;1.70;;;27.90;71.60;27.40;98912;;;;561579;252;24142;-85
2023/07/25 09:04:28;;;;;;;1.77;1.65;;;27.90;71.50;27.30;98917;;;;583172;242;23082;-85
2023/07/25 09:06:56;;;;;;;3.03;1.40;;;27.70;71.80;27.60;98914;;;;565096;252;24148;-87
2023/07/25 09:09:24;;;;;;;1.20;1.20;;;27.80;73.30;28.80;98910;;;;588915;241;23082;-86
2023/07/25 09:11:52;;;;;;;1.98;1.33;;;28.80;71.20;30.80;98910;;;;569231;251;23132;-86
2023/07/25 09:14:23;;;;;;;1.83;1.42;;;32.30;64.30;32.30;98911;;;;594230;239;23082;-86
2023/07/25 09:16:51;;;;;;;2.92;1.50;;;32.30;64.20;32.30;98895;;;;585057;242;24144;-86
2023/07/25 09:19:20;;;;;;;2.95;1.45;;;32.80;61.60;33.00;98904;;;;589821;242;23070;-86
2023/07/25 09:21:49;;;;;;;1.95;1.55;;;33.20;61.00;34.00;98904;;;;593961;242;23085;-88
2023/07/25 09:24:19;;;;;;;1.58;1.48;;;34.30;58.40;33.80;98895;;;;590947;242;23070;-85
2023/07/25 09:26:51;;;;;;;2.28;1.70;;;34.40;56.90;33.50;98890;;;;584870;242;24168;-85
2023/07/25 09:29:24;;;;;;;1.50;1.40;;;34.20;57.30;33.50;98899;;;;593868;242;23078;-86
2023/07/25 09:31:53;;;;;;;1.90;1.45;;;34.10;58.00;33.30;98904;;;;594333;242;24091;-86
2023/07/25 09:34:18;;;;;;;2.15;1.40;;;34.00;57.50;32.90;98908;;;;593977;238;24147;-87
2023/07/25 09:36:47;;;;;;;2.83;1.73;;;33.70;58.20;33.60;98920;;;;594282;238;23141;-87
2023/07/25 09:39:17;;;;;;;2.72;1.65;;;34.00;58.40;35.80;98919;;;;585140;242;23075;-87
2023/07/25 09:41:46;;;;;;;3.62;1.70;;;35.90;56.80;35.60;98917;;;;594018;238;23085;-86
2023/07/25 09:44:15;;;;;;;2.45;1.60;;;36.20;54.60;36.40;98918;;;;584422;242;23071;-86
2023/07/25 09:46:42;;;;;;;9.15;3.35;;;36.80;55.10;38.10;98911;;;;593992;238;24098;-86
2023/07/25 09:49:10;;;;;;;6.80;3.28;;;38.50;52.40;39.20;98909;;;;591960;239;24138;-85
2023/07/25 09:51:38;;;;;;;1.60;1.50;;;39.70;50.90;41.30;98909;;;;593644;242;23142;-88
2023/07/25 09:54:10;;;;;;;8.75;2.90;;;41.70;48.80;42.70;98912;;;;593688;242;23154;-88
2023/07/25 09:56:38;;;;;;;2.22;2.03;;;43.40;45.90;43.90;98907;;;;582309;242;23101;-85
2023/07/25 09:59:05;;;;;;;2.70;1.87;;;44.80;44.40;44.80;98907;;;;584067;242;24077;-87
2023/07/25 10:01:35;;;;;;;2.78;1.40;;;45.90;42.90;44.90;98918;;;;594259;240;23093;-87
2023/07/25 10:04:03;;;;;;;4.60;2.80;;;46.40;41.20;44.10;98929;;;;585677;242;23078;-86
2023/07/25 10:06:27;;;;;;;2.00;1.90;;;45.80;41.50;44.80;98941;;;;585291;242;23082;-87
2023/07/25 10:09:01;;;;;;;2.15;1.50;;;46.10;41.90;45.30;98946;;;;569967;250;23171;-87
2023/07/25 10:11:28;;;;;;;1.90;1.40;;;46.70;40.90;45.30;98944;;;;583483;242;23155;-87
2023/07/25 10:13:57;;;;;;;1.42;1.33;;;47.00;39.10;44.80;98962;;;;594203;242;23104;-88
2023/07/25 10:16:23;;;;;;;3.50;1.42;;;46.50;38.90;44.30;98963;;;;588261;242;24138;-89
2023/07/25 10:18:58;;;;;;;1.50;1.20;;;45.30;40.00;43.50;98967;;;;570351;251;23144;-85
2023/07/25 10:21:30;;;;;;;1.70;1.60;;;45.30;39.60;41.80;98970;;;;582420;242;23076;-86
2023/07/25 10:24:00;;;;;;;6.25;1.67;;;43.90;40.40;39.60;98985;;;;593860;242;23133;-87
2023/07/25 10:26:33;;;;;;;2.75;1.37;;;39.70;44.70;37.70;98974;;;;584992;242;23096;-86
2023/07/25 10:29:01;;;;;;;2.10;1.23;;;38.30;46.80;37.00;98979;;;;584771;242;24098;-86
2023/07/25 10:31:36;;;;;;;2.55;1.27;;;38.20;46.70;36.50;98973;;;;570139;251;23132;-84
2023/07/25 10:34:00;;;;;;;1.30;1.20;;;37.40;47.80;36.00;98985;;;;583041;242;23146;-84
2023/07/25 10:36:31;;;;;;;1.20;1.20;;;36.80;48.50;34.90;98983;;;;569283;252;23155;-87
2023/07/25 10:39:08;;;;;;;2.03;1.25;;;35.90;48.90;34.00;98998;;;;570000;248;23156;-85
2023/07/25 10:41:36;;;;;;;6.57;1.30;;;34.80;50.40;33.10;98995;;;;587885;242;23106;-85
2023/07/25 10:44:01;;;;;;;1.40;1.20;;;33.90;51.90;32.10;99001;;;;592721;242;24112;-86
2023/07/25 10:46:33;;;;;;;1.00;1.00;;;32.80;53.10;31.30;98997;;;;593241;242;23087;-85
2023/07/25 10:49:17;;;;;;;1.50;0.95;;;31.90;54.40;30.60;98991;;;;561852;253;23134;-86
2023/07/25 10:51:58;;;;;;;0.75;0.75;;;31.20;55.80;30.00;98991;;;;565581;254;23227;-84
2023/07/25 10:54:25;;;;;;;1.75;0.75;;;30.50;57.00;29.80;98990;;;;583879;242;23091;-85
2023/07/25 10:57:10;;;;;;;0.70;0.70;;;29.90;57.30;29.60;98989;;;;584075;242;24073;-85
2023/07/25 11:00:05;;;;;;;3.90;0.90;;;29.80;57.90;29.60;98984;;;;567385;247;23171;-84
2023/07/25 11:02:33;;;;;;;1.25;1.00;;;29.80;57.60;29.50;98991;;;;593822;242;24116;-84
2023/07/25 11:05:14;;;;;;;1.90;0.68;;;29.80;56.90;29.20;98989;;;;584426;242;23082;-84
2023/07/25 11:07:47;;;;;;;0.88;0.70;;;29.50;57.00;28.80;98988;;;;588772;242;23064;-84
2023/07/25 11:10:28;;;;;;;0.60;0.60;;;29.20;57.90;28.50;98979;;;;558539;252;24167;-85
2023/07/25 11:12:55;;;;;;;0.98;0.90;;;28.90;58.70;28.30;98984;;;;583583;241;23037;-85
2023/07/25 11:15:24;;;;;;;1.20;0.80;;;28.70;59.50;28.20;98982;;;;593465;238;23063;-84
2023/07/25 11:17:51;;;;;;;3.47;0.80;;;28.50;60.30;28.10;98982;;;;586150;242;24123;-85
2023/07/25 11:20:16;;;;;;;1.00;1.00;;;28.40;61.20;28.20;98974;;;;585581;242;24074;-83
2023/07/25 11:22:44;;;;;;;1.17;1.05;;;28.60;63.70;28.30;98978;;;;594414;241;23109;-86